sensor_id;sensor_type;location;lat;lon;timestamp;pressure;altitude;pressure_sealevel;temperature;humidity
76011;BME280;64701;43.536;1.478;2022-11-20T00:01:29;99748.84;;;6.63;87.92
76011;BME280;64701;43.536;1.478;2022-11-20T00:03:55;99741.47;;;6.67;87.74
76011;BME280;64701;43.536;1.478;2022-11-20T00:06:21;99744.59;;;6.70;87.23
76011;BME280;64701;43.536;1.478;2022-11-20T00:08:46;99749.56;;;6.73;87.18
76011;BME280;64701;43.536;1.478;2022-11-20T00:11:13;99740.66;;;6.74;87.24
76011;BME280;64701;43.536;1.478;2022-11-20T00:13:38;99739.81;;;6.74;87.55
76011;BME280;64701;43.536;1.478;2022-11-20T00:16:05;99740.66;;;6.74;86.98
76011;BME280;64701;43.536;1.478;2022-11-20T00:18:30;99742.94;;;6.69;87.76
76011;BME280;64701;43.536;1.478;2022-11-20T00:21:02;99742.94;;;6.69;87.11
76011;BME280;64701;43.536;1.478;2022-11-20T00:23:28;99736.38;;;6.65;87.43
76011;BME280;64701;43.536;1.478;2022-11-20T00:25:54;99752.16;;;6.65;87.39
76011;BME280;64701;43.536;1.478;2022-11-20T00:28:19;99746.88;;;6.65;87.54
76011;BME280;64701;43.536;1.478;2022-11-20T00:30:44;99751.19;;;6.66;87.53
76011;BME280;64701;43.536;1.478;2022-11-20T00:33:09;99751.81;;;6.68;87.90
76011;BME280;64701;43.536;1.478;2022-11-20T00:35:35;99743.63;;;6.71;87.35
76011;BME280;64701;43.536;1.478;2022-11-20T00:38:00;99738.19;;;6.73;87.38
76011;BME280;64701;43.536;1.478;2022-11-20T00:40:25;99737.38;;;6.72;88.04
76011;BME280;64701;43.536;1.478;2022-11-20T00:42:51;99743.94;;;6.76;87.73
76011;BME280;64701;43.536;1.478;2022-11-20T00:45:16;99746.91;;;6.81;87.84
76011;BME280;64701;43.536;1.478;2022-11-20T00:47:41;99744.97;;;6.83;87.86
76011;BME280;64701;43.536;1.478;2022-11-20T00:50:07;99738.53;;;6.86;87.38
76011;BME280;64701;43.536;1.478;2022-11-20T00:52:32;99735.91;;;6.86;87.33
76011;BME280;64701;43.536;1.478;2022-11-20T00:54:58;99739.88;;;6.90;87.14
76011;BME280;64701;43.536;1.478;2022-11-20T00:57:23;99738.69;;;6.92;87.40
76011;BME280;64701;43.536;1.478;2022-11-20T00:59:48;99742.69;;;6.96;87.26
76011;BME280;64701;43.536;1.478;2022-11-20T01:02:13;99745.31;;;6.96;87.04
76011;BME280;64701;43.536;1.478;2022-11-20T01:04:41;99746.28;;;6.95;87.36
76011;BME280;64701;43.536;1.478;2022-11-20T01:07:06;99740.34;;;6.93;87.42
76011;BME280;64701;43.536;1.478;2022-11-20T01:09:31;99742.16;;;6.93;87.36
76011;BME280;64701;43.536;1.478;2022-11-20T01:11:57;99742.50;;;6.90;87.42
76011;BME280;64701;43.536;1.478;2022-11-20T01:14:22;99745.13;;;6.90;87.43
76011;BME280;64701;43.536;1.478;2022-11-20T01:16:48;99743.63;;;6.87;87.24
76011;BME280;64701;43.536;1.478;2022-11-20T01:19:15;99738.53;;;6.86;87.13
76011;BME280;64701;43.536;1.478;2022-11-20T01:21:42;99741.34;;;6.84;86.71
76011;BME280;64701;43.536;1.478;2022-11-20T01:24:10;99737.69;;;6.85;86.78
76011;BME280;64701;43.536;1.478;2022-11-20T01:26:37;99742.16;;;6.85;86.42
76011;BME280;64701;43.536;1.478;2022-11-20T01:29:03;99742.47;;;6.82;86.07
76011;BME280;64701;43.536;1.478;2022-11-20T01:31:29;99748.09;;;6.79;86.53
76011;BME280;64701;43.536;1.478;2022-11-20T01:33:55;99744.63;;;6.78;85.95
76011;BME280;64701;43.536;1.478;2022-11-20T01:36:22;99749.22;;;6.76;85.89
76011;BME280;64701;43.536;1.478;2022-11-20T01:38:48;99747.91;;;6.72;85.88
76011;BME280;64701;43.536;1.478;2022-11-20T01:41:15;99743.78;;;6.70;86.40
76011;BME280;64701;43.536;1.478;2022-11-20T01:43:59;99753.47;;;6.69;86.09
76011;BME280;64701;43.536;1.478;2022-11-20T01:46:25;99756.09;;;6.69;85.68
76011;BME280;64701;43.536;1.478;2022-11-20T01:54:02;99751.78;;;6.52;86.77
76011;BME280;64701;43.536;1.478;2022-11-20T01:56:30;99752.13;;;6.49;87.18
76011;BME280;64701;43.536;1.478;2022-11-20T01:58:56;99752.75;;;6.43;87.45
76011;BME280;64701;43.536;1.478;2022-11-20T02:01:23;99761.28;;;6.45;86.83
76011;BME280;64701;43.536;1.478;2022-11-20T02:03:49;99756.84;;;6.45;86.26
76011;BME280;64701;43.536;1.478;2022-11-20T02:08:43;99757.50;;;6.39;86.96
76011;BME280;64701;43.536;1.478;2022-11-20T02:11:08;99757.63;;;6.38;87.21
76011;BME280;64701;43.536;1.478;2022-11-20T02:13:34;99760.28;;;6.38;86.43
76011;BME280;64701;43.536;1.478;2022-11-20T02:16:25;99764.84;;;6.28;87.39
76011;BME280;64701;43.536;1.478;2022-11-20T02:18:51;99768.16;;;6.30;87.32
76011;BME280;64701;43.536;1.478;2022-11-20T02:26:19;99771.72;;;6.21;87.38
76011;BME280;64701;43.536;1.478;2022-11-20T02:28:46;99768.78;;;6.24;87.21
76011;BME280;64701;43.536;1.478;2022-11-20T02:31:11;99770.38;;;6.17;87.47
76011;BME280;64701;43.536;1.478;2022-11-20T02:33:37;99770.22;;;6.18;87.40
76011;BME280;64701;43.536;1.478;2022-11-20T02:36:02;99773.00;;;6.17;87.48
76011;BME280;64701;43.536;1.478;2022-11-20T02:38:28;99771.69;;;6.12;87.21
76011;BME280;64701;43.536;1.478;2022-11-20T02:40:53;99765.75;;;6.10;87.60
76011;BME280;64701;43.536;1.478;2022-11-20T02:43:18;99760.97;;;6.06;87.69
76011;BME280;64701;43.536;1.478;2022-11-20T02:45:43;99761.81;;;6.06;87.61
76011;BME280;64701;43.536;1.478;2022-11-20T02:48:09;99753.03;;;5.98;87.75
76011;BME280;64701;43.536;1.478;2022-11-20T02:50:36;99755.38;;;6.01;87.51
76011;BME280;64701;43.536;1.478;2022-11-20T02:53:01;99752.75;;;6.01;86.70
76011;BME280;64701;43.536;1.478;2022-11-20T02:55:27;99756.84;;;6.03;86.16
76011;BME280;64701;43.536;1.478;2022-11-20T02:57:52;99759.78;;;6.00;87.17
76011;BME280;64701;43.536;1.478;2022-11-20T03:00:17;99763.88;;;5.95;86.88
76011;BME280;64701;43.536;1.478;2022-11-20T03:02:43;99764.03;;;5.93;87.66
76011;BME280;64701;43.536;1.478;2022-11-20T03:05:08;99770.25;;;5.92;87.58
76011;BME280;64701;43.536;1.478;2022-11-20T03:07:33;99763.03;;;5.94;87.01
76011;BME280;64701;43.536;1.478;2022-11-20T03:09:58;99765.53;;;5.96;86.40
76011;BME280;64701;43.536;1.478;2022-11-20T03:12:24;99763.88;;;5.95;86.49
76011;BME280;64701;43.536;1.478;2022-11-20T03:14:49;99767.47;;;5.94;86.52
76011;BME280;64701;43.536;1.478;2022-11-20T03:17:15;99766.50;;;5.95;86.48
76011;BME280;64701;43.536;1.478;2022-11-20T03:19:41;99758.75;;;5.93;86.85
76011;BME280;64701;43.536;1.478;2022-11-20T03:22:06;99765.81;;;5.93;86.34
76011;BME280;64701;43.536;1.478;2022-11-20T03:24:31;99752.69;;;5.93;86.27
76011;BME280;64701;43.536;1.478;2022-11-20T03:26:56;99757.13;;;5.92;86.10
76011;BME280;64701;43.536;1.478;2022-11-20T03:29:22;99756.28;;;5.92;86.36
76011;BME280;64701;43.536;1.478;2022-11-20T03:31:47;99754.81;;;5.89;86.21
76011;BME280;64701;43.536;1.478;2022-11-20T03:34:12;99754.81;;;5.89;86.38
76011;BME280;64701;43.536;1.478;2022-11-20T03:36:38;99749.56;;;5.89;85.86
76011;BME280;64701;43.536;1.478;2022-11-20T03:39:04;99751.19;;;5.90;85.37
76011;BME280;64701;43.536;1.478;2022-11-20T03:41:30;99755.06;;;5.86;86.20
76011;BME280;64701;43.536;1.478;2022-11-20T03:43:56;99742.25;;;5.83;86.32
76011;BME280;64701;43.536;1.478;2022-11-20T03:46:22;99749.75;;;5.78;86.67
76011;BME280;64701;43.536;1.478;2022-11-20T03:48:47;99744.84;;;5.75;86.92
76011;BME280;64701;43.536;1.478;2022-11-20T03:51:14;99746.50;;;5.76;86.48
76011;BME280;64701;43.536;1.478;2022-11-20T03:53:40;99741.72;;;5.71;86.84
76011;BME280;64701;43.536;1.478;2022-11-20T03:56:06;99744.94;;;5.65;86.66
76011;BME280;64701;43.536;1.478;2022-11-20T03:58:32;99746.75;;;5.65;87.18
76011;BME280;64701;43.536;1.478;2022-11-20T04:00:58;99738.88;;;5.65;87.18
76011;BME280;64701;43.536;1.478;2022-11-20T04:03:28;99738.03;;;5.64;87.08
76011;BME280;64701;43.536;1.478;2022-11-20T04:05:54;99735.72;;;5.61;87.37
76011;BME280;64701;43.536;1.478;2022-11-20T04:08:19;99731.59;;;5.59;86.90
76011;BME280;64701;43.536;1.478;2022-11-20T04:10:44;99738.50;;;5.60;86.72
76011;BME280;64701;43.536;1.478;2022-11-20T04:13:09;99737.78;;;5.50;87.33
76011;BME280;64701;43.536;1.478;2022-11-20T04:15:35;99741.06;;;5.52;87.26
76011;BME280;64701;43.536;1.478;2022-11-20T04:18:00;99731.53;;;5.51;86.86
76011;BME280;64701;43.536;1.478;2022-11-20T04:20:25;99739.75;;;5.48;87.23
76011;BME280;64701;43.536;1.478;2022-11-20T04:22:52;99737.25;;;5.46;87.38
76011;BME280;64701;43.536;1.478;2022-11-20T04:25:18;99737.25;;;5.46;87.62
76011;BME280;64701;43.536;1.478;2022-11-20T04:27:43;99728.56;;;5.46;86.89
76011;BME280;64701;43.536;1.478;2022-11-20T04:30:08;99723.31;;;5.46;86.98
76011;BME280;64701;43.536;1.478;2022-11-20T04:32:34;99725.94;;;5.46;87.02
76011;BME280;64701;43.536;1.478;2022-11-20T04:34:59;99730.81;;;5.41;86.72
76011;BME280;64701;43.536;1.478;2022-11-20T04:37:24;99724.06;;;5.38;86.59
76011;BME280;64701;43.536;1.478;2022-11-20T04:39:49;99731.13;;;5.38;86.20
76011;BME280;64701;43.536;1.478;2022-11-20T04:42:15;99721.59;;;5.37;85.89
76011;BME280;64701;43.536;1.478;2022-11-20T04:44:55;99728.81;;;5.34;85.72
76011;BME280;64701;43.536;1.478;2022-11-20T04:47:21;99725.97;;;5.28;86.27
76011;BME280;64701;43.536;1.478;2022-11-20T04:49:46;99719.22;;;5.25;86.08
76011;BME280;64701;43.536;1.478;2022-11-20T04:52:12;99728.88;;;5.25;85.41
76011;BME280;64701;43.536;1.478;2022-11-20T04:54:37;99723.88;;;5.14;86.78
76011;BME280;64701;43.536;1.478;2022-11-20T04:57:02;99718.81;;;5.12;86.00
76011;BME280;64701;43.536;1.478;2022-11-20T04:59:27;99727.66;;;5.11;85.70
76011;BME280;64701;43.536;1.478;2022-11-20T05:01:53;99729.59;;;5.09;85.47
76011;BME280;64701;43.536;1.478;2022-11-20T05:04:18;99736.78;;;5.07;85.43
76011;BME280;64701;43.536;1.478;2022-11-20T05:06:43;99731.53;;;5.07;85.84
76011;BME280;64701;43.536;1.478;2022-11-20T05:09:10;99726.28;;;5.07;85.73
76011;BME280;64701;43.536;1.478;2022-11-20T05:11:35;99729.91;;;5.06;85.44
76011;BME280;64701;43.536;1.478;2022-11-20T05:14:01;99721.34;;;5.04;85.60
76011;BME280;64701;43.536;1.478;2022-11-20T05:16:26;99725.25;;;5.00;85.26
76011;BME280;64701;43.536;1.478;2022-11-20T05:18:52;99735.22;;;4.97;86.01
76011;BME280;64701;43.536;1.478;2022-11-20T05:21:18;99730.28;;;4.93;85.43
76011;BME280;64701;43.536;1.478;2022-11-20T05:23:43;99734.03;;;4.91;85.45
76011;BME280;64701;43.536;1.478;2022-11-20T05:26:13;99731.72;;;4.88;85.58
76011;BME280;64701;43.536;1.478;2022-11-20T05:28:39;99728.41;;;4.86;84.95
76011;BME280;64701;43.536;1.478;2022-11-20T05:31:09;99730.19;;;4.85;85.08
76011;BME280;64701;43.536;1.478;2022-11-20T05:33:35;99724.28;;;4.83;84.92
76011;BME280;64701;43.536;1.478;2022-11-20T05:36:01;99726.25;;;4.81;84.58
76011;BME280;64701;43.536;1.478;2022-11-20T05:38:26;99720.31;;;4.79;84.86
76011;BME280;64701;43.536;1.478;2022-11-20T05:40:51;99718.78;;;4.77;85.44
76011;BME280;64701;43.536;1.478;2022-11-20T05:43:17;99721.88;;;4.72;85.80
76011;BME280;64701;43.536;1.478;2022-11-20T05:45:42;99729.88;;;4.71;85.68
76011;BME280;64701;43.536;1.478;2022-11-20T05:48:07;99721.22;;;4.70;85.90
76011;BME280;64701;43.536;1.478;2022-11-20T05:50:32;99721.38;;;4.69;86.11
76011;BME280;64701;43.536;1.478;2022-11-20T05:52:58;99718.06;;;4.67;85.69
76011;BME280;64701;43.536;1.478;2022-11-20T05:55:24;99725.25;;;4.65;85.44
76011;BME280;64701;43.536;1.478;2022-11-20T05:57:49;99722.78;;;4.63;85.25
76011;BME280;64701;43.536;1.478;2022-11-20T06:00:15;99718.78;;;4.59;85.08
76011;BME280;64701;43.536;1.478;2022-11-20T06:02:40;99725.84;;;4.59;85.42
76011;BME280;64701;43.536;1.478;2022-11-20T06:05:06;99716.47;;;4.56;86.54
76011;BME280;64701;43.536;1.478;2022-11-20T06:07:31;99723.66;;;4.54;86.35
76011;BME280;64701;43.536;1.478;2022-11-20T06:09:56;99731.69;;;4.53;85.74
76011;BME280;64701;43.536;1.478;2022-11-20T06:12:21;99732.66;;;4.51;85.75
76011;BME280;64701;43.536;1.478;2022-11-20T06:14:47;99738.88;;;4.50;85.32
76011;BME280;64701;43.536;1.478;2022-11-20T06:17:13;99736.38;;;4.49;85.62
76011;BME280;64701;43.536;1.478;2022-11-20T06:19:38;99743.56;;;4.47;85.50
76011;BME280;64701;43.536;1.478;2022-11-20T06:22:03;99740.44;;;4.43;85.14
76011;BME280;64701;43.536;1.478;2022-11-20T06:24:28;99733.47;;;4.34;85.93
76011;BME280;64701;43.536;1.478;2022-11-20T06:26:54;99730.16;;;4.32;85.73
76011;BME280;64701;43.536;1.478;2022-11-20T06:29:19;99734.69;;;4.30;85.21
76011;BME280;64701;43.536;1.478;2022-11-20T06:31:44;99734.03;;;4.28;85.53
76011;BME280;64701;43.536;1.478;2022-11-20T06:34:10;99731.56;;;4.27;85.87
76011;BME280;64701;43.536;1.478;2022-11-20T06:36:35;99731.69;;;4.25;85.13
76011;BME280;64701;43.536;1.478;2022-11-20T06:39:00;99728.25;;;4.25;85.67
76011;BME280;64701;43.536;1.478;2022-11-20T06:41:26;99741.22;;;4.26;85.73
76011;BME280;64701;43.536;1.478;2022-11-20T06:43:51;99733.50;;;4.25;85.49
76011;BME280;64701;43.536;1.478;2022-11-20T06:46:17;99741.66;;;4.22;86.35
76011;BME280;64701;43.536;1.478;2022-11-20T06:48:43;99732.16;;;4.21;86.52
76011;BME280;64701;43.536;1.478;2022-11-20T06:51:09;99734.91;;;4.19;86.36
76011;BME280;64701;43.536;1.478;2022-11-20T06:53:34;99737.38;;;4.21;86.37
76011;BME280;64701;43.536;1.478;2022-11-20T06:56:00;99727.03;;;4.19;85.39
76011;BME280;64701;43.536;1.478;2022-11-20T06:58:26;99730.47;;;4.20;85.47
76011;BME280;64701;43.536;1.478;2022-11-20T07:00:52;99728.84;;;4.19;85.88
76011;BME280;64701;43.536;1.478;2022-11-20T07:03:17;99729.66;;;4.19;85.54
76011;BME280;64701;43.536;1.478;2022-11-20T07:05:43;99733.25;;;4.18;86.06
76011;BME280;64701;43.536;1.478;2022-11-20T07:08:11;99734.22;;;4.17;85.55
76011;BME280;64701;43.536;1.478;2022-11-20T07:10:37;99729.97;;;4.16;85.07
76011;BME280;64701;43.536;1.478;2022-11-20T07:13:02;99738.78;;;4.15;85.16
76011;BME280;64701;43.536;1.478;2022-11-20T07:15:27;99733.56;;;4.15;84.72
76011;BME280;64701;43.536;1.478;2022-11-20T07:17:53;99743.22;;;4.15;85.70
76011;BME280;64701;43.536;1.478;2022-11-20T07:20:18;99744.03;;;4.15;85.66
76011;BME280;64701;43.536;1.478;2022-11-20T07:22:43;99750.25;;;4.14;85.76
76011;BME280;64701;43.536;1.478;2022-11-20T07:25:09;99751.91;;;4.15;85.83
76011;BME280;64701;43.536;1.478;2022-11-20T07:27:35;99757.78;;;4.17;86.07
76011;BME280;64701;43.536;1.478;2022-11-20T07:30:00;99754.06;;;4.20;85.84
76011;BME280;64701;43.536;1.478;2022-11-20T07:32:26;99753.25;;;4.19;86.34
76011;BME280;64701;43.536;1.478;2022-11-20T07:34:51;99748.69;;;4.21;86.43
76011;BME280;64701;43.536;1.478;2022-11-20T07:37:17;99763.28;;;4.24;86.03
76011;BME280;64701;43.536;1.478;2022-11-20T07:39:42;99761.06;;;4.29;86.64
76011;BME280;64701;43.536;1.478;2022-11-20T07:42:08;99754.44;;;4.34;86.51
76011;BME280;64701;43.536;1.478;2022-11-20T07:44:34;99761.00;;;4.38;86.33
76011;BME280;64701;43.536;1.478;2022-11-20T07:46:59;99756.16;;;4.43;86.32
76011;BME280;64701;43.536;1.478;2022-11-20T07:49:25;99759.28;;;4.47;85.58
76011;BME280;64701;43.536;1.478;2022-11-20T07:51:50;99757.22;;;4.50;85.51
76011;BME280;64701;43.536;1.478;2022-11-20T07:54:18;99757.59;;;4.56;86.04
76011;BME280;64701;43.536;1.478;2022-11-20T07:56:43;99767.88;;;4.67;85.79
76011;BME280;64701;43.536;1.478;2022-11-20T07:59:09;99772.91;;;4.78;86.36
76011;BME280;64701;43.536;1.478;2022-11-20T08:01:36;99762.59;;;4.94;86.23
76011;BME280;64701;43.536;1.478;2022-11-20T08:04:02;99772.09;;;5.13;86.01
76011;BME280;64701;43.536;1.478;2022-11-20T08:06:27;99781.94;;;5.28;86.40
76011;BME280;64701;43.536;1.478;2022-11-20T08:08:52;99775.69;;;5.47;85.94
76011;BME280;64701;43.536;1.478;2022-11-20T08:11:17;99775.56;;;5.57;85.90
76011;BME280;64701;43.536;1.478;2022-11-20T08:14:01;99778.28;;;5.65;85.72
76011;BME280;64701;43.536;1.478;2022-11-20T08:16:40;99773.41;;;5.78;85.09
76011;BME280;64701;43.536;1.478;2022-11-20T08:19:05;99772.53;;;5.87;85.65
76011;BME280;64701;43.536;1.478;2022-11-20T08:21:31;99769.97;;;5.95;85.20
76011;BME280;64701;43.536;1.478;2022-11-20T08:23:57;99769.84;;;6.05;85.03
76011;BME280;64701;43.536;1.478;2022-11-20T08:26:22;99776.06;;;6.04;84.80
76011;BME280;64701;43.536;1.478;2022-11-20T08:28:48;99763.13;;;6.10;84.42
76011;BME280;64701;43.536;1.478;2022-11-20T08:31:13;99780.84;;;6.08;84.38
76011;BME280;64701;43.536;1.478;2022-11-20T08:33:39;99789.47;;;6.19;84.72
76011;BME280;64701;43.536;1.478;2022-11-20T08:36:04;99796.72;;;6.25;84.56
76011;BME280;64701;43.536;1.478;2022-11-20T08:38:30;99798.03;;;6.29;84.41
76011;BME280;64701;43.536;1.478;2022-11-20T08:40:59;99800.53;;;6.30;83.92
76011;BME280;64701;43.536;1.478;2022-11-20T08:43:43;99804.00;;;6.39;84.44
76011;BME280;64701;43.536;1.478;2022-11-20T08:46:09;99798.16;;;6.53;84.86
76011;BME280;64701;43.536;1.478;2022-11-20T08:48:34;99791.19;;;6.94;84.80
76011;BME280;64701;43.536;1.478;2022-11-20T08:50:59;99782.69;;;7.32;84.59
76011;BME280;64701;43.536;1.478;2022-11-20T08:53:25;99801.63;;;7.60;82.85
76011;BME280;64701;43.536;1.478;2022-11-20T08:55:51;99809.31;;;8.02;81.28
76011;BME280;64701;43.536;1.478;2022-11-20T08:58:16;99821.19;;;8.53;81.76
76011;BME280;64701;43.536;1.478;2022-11-20T09:00:42;99810.94;;;8.67;78.08
76011;BME280;64701;43.536;1.478;2022-11-20T09:03:07;99815.53;;;8.73;78.58
76011;BME280;64701;43.536;1.478;2022-11-20T09:05:32;99824.88;;;8.83;79.23
76011;BME280;64701;43.536;1.478;2022-11-20T09:07:58;99829.31;;;9.14;78.34
76011;BME280;64701;43.536;1.478;2022-11-20T09:10:23;99836.50;;;9.28;78.75
76011;BME280;64701;43.536;1.478;2022-11-20T09:12:49;99826.88;;;9.35;77.89
76011;BME280;64701;43.536;1.478;2022-11-20T09:15:15;99835.03;;;9.25;75.94
76011;BME280;64701;43.536;1.478;2022-11-20T09:17:41;99837.53;;;9.41;77.70
76011;BME280;64701;43.536;1.478;2022-11-20T09:20:06;99846.81;;;9.37;76.19
76011;BME280;64701;43.536;1.478;2022-11-20T09:22:31;99853.75;;;9.38;77.26
76011;BME280;64701;43.536;1.478;2022-11-20T09:24:57;99848.00;;;9.58;75.63
76011;BME280;64701;43.536;1.478;2022-11-20T09:27:23;99856.22;;;9.63;74.65
76011;BME280;64701;43.536;1.478;2022-11-20T09:29:48;99851.28;;;9.82;75.73
76011;BME280;64701;43.536;1.478;2022-11-20T09:32:13;99849.69;;;9.73;72.88
76011;BME280;64701;43.536;1.478;2022-11-20T09:34:39;99852.19;;;9.90;74.42
76011;BME280;64701;43.536;1.478;2022-11-20T09:37:04;99854.06;;;10.04;72.72
76011;BME280;64701;43.536;1.478;2022-11-20T09:39:29;99842.44;;;10.42;74.95
76011;BME280;64701;43.536;1.478;2022-11-20T09:44:54;99822.41;;;11.41;72.54
76011;BME280;64701;43.536;1.478;2022-11-20T09:47:35;99816.22;;;11.76;71.90
76011;BME280;64701;43.536;1.478;2022-11-20T09:52:59;99806.63;;;12.79;70.76
76011;BME280;64701;43.536;1.478;2022-11-20T09:55:27;99802.59;;;13.02;69.00
76011;BME280;64701;43.536;1.478;2022-11-20T09:57:53;99783.44;;;13.14;65.32
76011;BME280;64701;43.536;1.478;2022-11-20T10:00:18;99777.53;;;13.71;68.19
76011;BME280;64701;43.536;1.478;2022-11-20T10:10:03;99774.75;;;15.26;60.50
76011;BME280;64701;43.536;1.478;2022-11-20T10:25:34;99798.59;;;17.41;58.76
76011;BME280;64701;43.536;1.478;2022-11-20T10:30:26;99791.91;;;18.55;57.81
76011;BME280;64701;43.536;1.478;2022-11-20T10:32:54;99794.06;;;19.09;54.98
76011;BME280;64701;43.536;1.478;2022-11-20T10:37:47;99794.13;;;19.43;49.83
76011;BME280;64701;43.536;1.478;2022-11-20T10:40:31;99786.47;;;19.35;53.53
76011;BME280;64701;43.536;1.478;2022-11-20T10:43:58;99781.63;;;19.82;50.93
76011;BME280;64701;43.536;1.478;2022-11-20T10:48:26;99763.75;;;20.91;50.55
76011;BME280;64701;43.536;1.478;2022-11-20T10:50:57;99757.22;;;20.87;45.10
76011;BME280;64701;43.536;1.478;2022-11-20T10:53:45;99755.53;;;21.03;43.50
76011;BME280;64701;43.536;1.478;2022-11-20T10:56:24;99757.84;;;21.85;50.14
76011;BME280;64701;43.536;1.478;2022-11-20T11:01:26;99738.69;;;22.23;40.10
76011;BME280;64701;43.536;1.478;2022-11-20T11:03:52;99735.97;;;22.86;48.89
76011;BME280;64701;43.536;1.478;2022-11-20T11:06:37;99729.56;;;23.27;48.45
76011;BME280;64701;43.536;1.478;2022-11-20T11:09:09;99726.50;;;22.83;40.29
76011;BME280;64701;43.536;1.478;2022-11-20T11:11:37;99715.19;;;22.86;40.43
76011;BME280;64701;43.536;1.478;2022-11-20T11:14:06;99713.63;;;23.46;46.78
76011;BME280;64701;43.536;1.478;2022-11-20T11:16:31;99721.72;;;23.20;44.56
76011;BME280;64701;43.536;1.478;2022-11-20T11:19:03;99713.59;;;23.20;44.07
76011;BME280;64701;43.536;1.478;2022-11-20T11:21:29;99713.84;;;21.74;41.49
76011;BME280;64701;43.536;1.478;2022-11-20T11:24:02;99720.97;;;20.95;46.57
76011;BME280;64701;43.536;1.478;2022-11-20T11:26:27;99722.97;;;21.09;45.96
76011;BME280;64701;43.536;1.478;2022-11-20T11:29:03;99719.16;;;22.06;50.00
76011;BME280;64701;43.536;1.478;2022-11-20T11:31:32;99703.59;;;22.91;48.88
76011;BME280;64701;43.536;1.478;2022-11-20T11:34:31;99706.59;;;23.45;45.06
76011;BME280;64701;43.536;1.478;2022-11-20T11:36:56;99703.69;;;24.95;47.17
76011;BME280;64701;43.536;1.478;2022-11-20T11:39:25;99684.78;;;25.24;36.93
76011;BME280;64701;43.536;1.478;2022-11-20T11:41:51;99692.09;;;24.85;42.78
76011;BME280;64701;43.536;1.478;2022-11-20T11:47:01;99675.78;;;23.05;39.52
76011;BME280;64701;43.536;1.478;2022-11-20T11:49:28;99670.84;;;22.67;44.93
76011;BME280;64701;43.536;1.478;2022-11-20T11:52:02;99677.22;;;22.40;45.65
76011;BME280;64701;43.536;1.478;2022-11-20T11:57:15;99666.81;;;22.69;47.13
76011;BME280;64701;43.536;1.478;2022-11-20T12:02:29;99660.66;;;23.19;41.60
76011;BME280;64701;43.536;1.478;2022-11-20T12:05:13;99665.97;;;24.60;44.88
76011;BME280;64701;43.536;1.478;2022-11-20T12:07:42;99662.88;;;24.76;43.29
76011;BME280;64701;43.536;1.478;2022-11-20T12:10:33;99650.44;;;25.43;37.03
76011;BME280;64701;43.536;1.478;2022-11-20T12:15:57;99660.78;;;22.42;42.84
76011;BME280;64701;43.536;1.478;2022-11-20T12:18:23;99650.53;;;21.82;40.90
76011;BME280;64701;43.536;1.478;2022-11-20T12:20:55;99636.44;;;21.28;43.05
76011;BME280;64701;43.536;1.478;2022-11-20T12:23:28;99640.41;;;20.88;44.71
76011;BME280;64701;43.536;1.478;2022-11-20T12:25:56;99636.41;;;20.15;46.60
76011;BME280;64701;43.536;1.478;2022-11-20T12:33:57;99643.59;;;20.10;50.08
76011;BME280;64701;43.536;1.478;2022-11-20T12:39:02;99638.50;;;20.57;50.89
76011;BME280;64701;43.536;1.478;2022-11-20T12:47:36;99623.31;;;18.75;51.09
76011;BME280;64701;43.536;1.478;2022-11-20T12:50:14;99623.91;;;18.20;50.84
76011;BME280;64701;43.536;1.478;2022-11-20T12:58:15;99644.41;;;16.87;53.95
76011;BME280;64701;43.536;1.478;2022-11-20T13:00:50;99637.09;;;16.52;54.93
76011;BME280;64701;43.536;1.478;2022-11-20T13:08:30;99643.41;;;15.73;59.58
76011;BME280;64701;43.536;1.478;2022-11-20T13:13:25;99645.88;;;15.07;63.58
76011;BME280;64701;43.536;1.478;2022-11-20T13:16:08;99636.38;;;14.86;63.98
76011;BME280;64701;43.536;1.478;2022-11-20T13:18:39;99628.13;;;14.63;64.04
76011;BME280;64701;43.536;1.478;2022-11-20T13:21:34;99624.53;;;14.51;65.70
76011;BME280;64701;43.536;1.478;2022-11-20T13:24:33;99629.56;;;14.21;68.52
76011;BME280;64701;43.536;1.478;2022-11-20T13:29:59;99613.09;;;13.99;68.17
76011;BME280;64701;43.536;1.478;2022-11-20T13:32:28;99611.69;;;13.90;69.03
76011;BME280;64701;43.536;1.478;2022-11-20T13:35:23;99604.56;;;13.71;70.12
76011;BME280;64701;43.536;1.478;2022-11-20T13:38:10;99612.38;;;13.59;69.95
76011;BME280;64701;43.536;1.478;2022-11-20T13:46:05;99615.50;;;13.36;70.89
76011;BME280;64701;43.536;1.478;2022-11-20T13:48:41;99607.53;;;13.30;71.87
76011;BME280;64701;43.536;1.478;2022-11-20T13:51:15;99605.31;;;13.20;71.72
76011;BME280;64701;43.536;1.478;2022-11-20T14:01:35;99594.66;;;12.94;74.98
76011;BME280;64701;43.536;1.478;2022-11-20T14:04:08;99593.25;;;12.98;75.39
76011;BME280;64701;43.536;1.478;2022-11-20T14:06:38;99588.72;;;13.05;74.87
76011;BME280;64701;43.536;1.478;2022-11-20T14:09:10;99591.19;;;13.00;76.19
76011;BME280;64701;43.536;1.478;2022-11-20T14:11:35;99587.50;;;12.88;77.84
76011;BME280;64701;43.536;1.478;2022-11-20T14:16:37;99585.88;;;12.87;77.69
76011;BME280;64701;43.536;1.478;2022-11-20T14:21:49;99585.06;;;12.86;78.88
76011;BME280;64701;43.536;1.478;2022-11-20T14:24:21;99581.38;;;13.00;77.22
76011;BME280;64701;43.536;1.478;2022-11-20T14:32:19;99589.66;;;14.14;77.80
76011;BME280;64701;43.536;1.478;2022-11-20T14:34:46;99584.44;;;14.95;74.85
76011;BME280;64701;43.536;1.478;2022-11-20T14:37:13;99566.03;;;15.55;72.83
76011;BME280;64701;43.536;1.478;2022-11-20T14:39:48;99557.09;;;15.61;72.39
76011;BME280;64701;43.536;1.478;2022-11-20T14:42:17;99557.81;;;15.50;71.97
76011;BME280;64701;43.536;1.478;2022-11-20T14:44:43;99571.66;;;15.22;72.98
76011;BME280;64701;43.536;1.478;2022-11-20T14:47:10;99558.22;;;15.10;73.64
76011;BME280;64701;43.536;1.478;2022-11-20T14:49:36;99562.75;;;15.10;73.56
76011;BME280;64701;43.536;1.478;2022-11-20T14:52:09;99576.81;;;14.99;74.51
76011;BME280;64701;43.536;1.478;2022-11-20T14:54:43;99575.22;;;14.91;74.58
76011;BME280;64701;43.536;1.478;2022-11-20T14:57:19;99579.09;;;14.95;73.51
76011;BME280;64701;43.536;1.478;2022-11-20T14:59:45;99585.72;;;14.61;74.05
76011;BME280;64701;43.536;1.478;2022-11-20T15:02:11;99573.03;;;14.57;73.25
76011;BME280;64701;43.536;1.478;2022-11-20T15:04:49;99590.38;;;14.35;74.37